createdAt,value
2023-04-11T00:02:01.887Z,0.70
2023-04-11T00:07:07.851Z,0.75
2023-04-11T00:12:16.000Z,0.77
2023-04-11T00:17:21.375Z,0.65
2023-04-11T00:22:27.932Z,0.97
2023-04-11T00:27:35.906Z,0.77
2023-04-11T00:32:41.418Z,0.98
2023-04-11T00:37:54.404Z,0.77
2023-04-11T00:43:02.492Z,0.80
2023-04-11T00:48:08.350Z,0.90
2023-04-11T00:53:15.650Z,0.90
2023-04-11T00:58:24.056Z,0.77
2023-04-11T01:03:30.471Z,1.63
2023-04-11T01:08:37.820Z,1.00
2023-04-11T01:13:46.058Z,1.50
2023-04-11T01:18:51.895Z,1.47
2023-04-11T01:24:03.782Z,1.80
2023-04-11T01:29:09.280Z,1.52
2023-04-11T01:34:17.967Z,1.40
2023-04-11T01:39:26.231Z,1.20
2023-04-11T01:44:32.511Z,1.50
2023-04-11T01:49:38.363Z,1.67
2023-04-11T01:54:46.350Z,1.80
2023-04-11T01:59:53.390Z,1.73
2023-04-11T02:04:58.840Z,1.70
2023-04-11T02:10:07.785Z,2.25
2023-04-11T02:15:13.741Z,1.50
2023-04-11T02:20:21.531Z,1.70
2023-04-11T02:25:29.450Z,1.95
2023-04-11T02:30:37.864Z,2.25
2023-04-11T02:35:43.645Z,1.80
2023-04-11T02:40:51.594Z,2.13
2023-04-11T02:46:09.480Z,1.40
2023-04-11T02:51:17.615Z,1.70
2023-04-11T02:56:25.864Z,1.67
2023-04-11T03:01:35.051Z,1.50
2023-04-11T03:06:40.952Z,1.92
2023-04-11T03:11:49.092Z,2.00
2023-04-11T03:16:54.934Z,1.90
2023-04-11T03:22:00.629Z,1.85
2023-04-11T03:27:08.875Z,2.20
2023-04-11T03:32:17.346Z,2.60
2023-04-11T03:37:22.803Z,1.85
2023-04-11T03:42:30.793Z,2.20
2023-04-11T03:47:38.961Z,2.00
2023-04-11T03:52:44.764Z,1.75
2023-04-11T03:57:55.892Z,1.83
2023-04-11T04:03:02.570Z,1.98
2023-04-11T04:08:09.059Z,2.33
2023-04-11T04:13:24.006Z,1.60
2023-04-11T04:18:38.830Z,2.17
2023-04-11T04:23:50.211Z,2.30
2023-04-11T04:29:12.837Z,2.03
2023-04-11T04:34:31.401Z,1.88
2023-04-11T04:39:39.568Z,2.60
2023-04-11T04:44:50.267Z,2.30
2023-04-11T04:49:58.640Z,1.92
2023-04-11T04:55:04.607Z,2.63
2023-04-11T05:00:15.514Z,2.35
2023-04-11T05:05:23.659Z,1.80
2023-04-11T05:10:29.317Z,2.17
2023-04-11T05:15:37.683Z,2.15
2023-04-11T05:20:43.189Z,2.20
2023-04-11T05:25:52.423Z,2.00
2023-04-11T05:31:01.945Z,1.95
2023-04-11T05:36:08.823Z,2.50
2023-04-11T05:41:15.324Z,2.05
2023-04-11T05:46:23.525Z,2.20
2023-04-11T05:51:29.444Z,2.37
2023-04-11T05:56:35.458Z,3.10
2023-04-11T06:01:43.508Z,2.47
2023-04-11T06:06:49.119Z,2.30
2023-04-11T06:11:54.725Z,2.28
2023-04-11T06:17:03.347Z,2.67
2023-04-11T06:22:09.345Z,2.80
2023-04-11T06:27:15.618Z,2.47
2023-04-11T06:32:25.542Z,2.40
2023-04-11T06:37:31.600Z,2.55
2023-04-11T06:42:36.974Z,2.77
2023-04-11T06:47:45.534Z,2.22
2023-04-11T06:52:53.690Z,2.33
2023-04-11T06:57:59.176Z,2.30
2023-04-11T07:03:08.682Z,2.28
2023-04-11T07:08:14.562Z,2.57
2023-04-11T07:13:21.015Z,2.35
2023-04-11T07:18:40.292Z,2.47
2023-04-11T07:23:50.716Z,2.27
2023-04-11T07:28:56.192Z,1.85
2023-04-11T07:34:04.727Z,2.20
2023-04-11T07:39:12.388Z,2.20
2023-04-11T07:44:17.901Z,2.10
2023-04-11T07:49:26.116Z,2.20
2023-04-11T07:54:31.652Z,1.90
2023-04-11T07:59:37.257Z,1.58
2023-04-11T08:04:45.687Z,1.83
2023-04-11T08:09:51.435Z,1.70
2023-04-11T08:14:56.925Z,1.27
2023-04-11T08:20:05.188Z,1.40
2023-04-11T08:25:15.074Z,1.63
2023-04-11T08:30:21.518Z,1.40
2023-04-11T08:35:30.612Z,1.33
2023-04-11T08:40:36.536Z,1.15
2023-04-11T08:45:42.102Z,1.20
2023-04-11T08:50:50.512Z,1.23
2023-04-11T08:55:56.020Z,1.90
2023-04-11T09:01:25.321Z,1.10
2023-04-11T09:06:39.369Z,1.38
2023-04-11T09:11:57.069Z,1.45
2023-04-11T09:17:05.882Z,1.30
2023-04-11T09:22:15.911Z,0.93
2023-04-11T09:27:24.725Z,1.30
2023-04-11T09:32:37.944Z,1.10
2023-04-11T09:37:53.490Z,1.15
2023-04-11T09:43:00.751Z,1.10
2023-04-11T09:48:06.533Z,1.00
2023-04-11T09:53:14.636Z,0.90
2023-04-11T09:58:20.446Z,1.80
2023-04-11T10:03:27.915Z,1.63
2023-04-11T10:08:37.436Z,1.02
2023-04-11T10:13:44.460Z,1.13
2023-04-11T10:19:19.873Z,1.37
2023-04-11T10:24:27.872Z,1.40
2023-04-11T10:29:51.358Z,1.65
2023-04-11T10:35:36.109Z,2.03
2023-04-11T10:41:17.066Z,1.70
2023-04-11T10:46:23.979Z,1.90
2023-04-11T10:51:30.179Z,1.97
2023-04-11T10:56:59.768Z,2.10
2023-04-11T11:02:05.867Z,2.15
2023-04-11T11:07:17.369Z,2.20
2023-04-11T11:12:25.524Z,1.70
2023-04-11T11:17:30.880Z,2.00
2023-04-11T11:22:36.431Z,2.00
2023-04-11T11:27:44.331Z,1.73
2023-04-11T11:32:49.751Z,2.10
2023-04-11T11:37:56.544Z,1.90
2023-04-11T11:43:04.599Z,2.10
2023-04-11T11:48:10.151Z,1.88
2023-04-11T11:53:16.792Z,1.60
2023-04-11T11:58:24.750Z,1.63
2023-04-11T12:03:30.208Z,1.52
2023-04-11T12:08:36.661Z,1.90
2023-04-11T12:13:45.778Z,1.85
2023-04-11T12:18:51.237Z,1.40
2023-04-11T12:23:57.104Z,1.50
2023-04-11T12:29:07.477Z,1.40
2023-04-11T12:34:13.362Z,1.50
2023-04-11T12:39:18.850Z,1.50
2023-04-11T12:44:26.848Z,1.40
2023-04-11T12:49:32.292Z,1.80
2023-04-11T12:54:37.781Z,1.47
2023-04-11T12:59:45.868Z,1.40
2023-04-11T13:04:53.590Z,1.98
2023-04-11T13:09:59.067Z,1.47
2023-04-11T13:15:07.796Z,1.30
2023-04-11T13:20:14.664Z,1.10
2023-04-11T13:25:21.371Z,1.00
2023-04-11T13:30:29.331Z,1.40
2023-04-11T13:35:34.708Z,1.30
2023-04-11T13:40:43.083Z,1.10
2023-04-11T13:45:51.029Z,0.80
2023-04-11T13:50:57.719Z,1.00
2023-04-11T13:56:04.090Z,1.00
2023-04-11T14:01:12.627Z,0.95
2023-04-11T14:06:19.469Z,0.80
2023-04-11T14:11:24.801Z,1.40
2023-04-11T14:16:32.749Z,0.73
2023-04-11T14:21:38.082Z,0.77
2023-04-11T14:26:43.408Z,0.90
2023-04-11T14:31:51.670Z,1.42
2023-04-11T14:36:57.412Z,0.80
2023-04-11T14:42:04.186Z,1.00
2023-04-11T14:47:12.202Z,1.10
2023-04-11T14:52:17.538Z,1.00
2023-04-11T14:57:25.435Z,0.80
2023-04-11T15:02:33.771Z,1.00
2023-04-11T15:07:39.634Z,1.27
2023-04-11T15:12:45.039Z,0.90
2023-04-11T15:18:23.356Z,0.82
2023-04-11T15:23:29.338Z,1.47
2023-04-11T15:28:36.521Z,0.80
2023-04-11T15:33:44.429Z,1.08
2023-04-11T15:38:49.853Z,1.07
2023-04-11T15:43:55.491Z,1.13
2023-04-11T15:49:03.719Z,0.95
2023-04-11T15:54:09.178Z,1.00
2023-04-11T15:59:15.745Z,0.80
2023-04-11T16:04:23.926Z,0.70
2023-04-11T16:09:29.589Z,1.00
2023-04-11T16:14:35.213Z,1.40
2023-04-11T16:19:43.226Z,0.98
2023-04-11T16:24:48.659Z,1.07
2023-04-11T16:29:59.933Z,1.00
2023-04-11T16:35:09.197Z,1.70
2023-04-11T16:40:15.892Z,1.10
2023-04-11T16:45:21.504Z,1.30
2023-04-11T16:50:32.305Z,1.25
2023-04-11T16:55:37.643Z,1.13
2023-04-11T17:00:43.470Z,0.93
2023-04-11T17:05:51.871Z,1.48
2023-04-11T17:11:06.811Z,1.30
2023-04-11T17:16:12.280Z,1.40
2023-04-11T17:21:20.390Z,1.60
2023-04-11T17:26:25.914Z,1.60
2023-04-11T17:31:37.134Z,1.40
2023-04-11T17:36:46.171Z,1.45
2023-04-11T17:41:51.714Z,1.40
2023-04-11T17:46:57.275Z,1.17
2023-04-11T17:52:05.321Z,1.30
2023-04-11T17:57:10.670Z,1.30
2023-04-11T18:02:16.729Z,1.20
2023-04-11T18:07:25.549Z,1.77
2023-04-11T18:12:31.300Z,1.60
2023-04-11T18:17:37.747Z,1.00
2023-04-11T18:22:47.339Z,1.00
2023-04-11T18:27:52.856Z,1.30
2023-04-11T18:33:01.927Z,1.23
2023-04-11T18:38:10.170Z,1.27
2023-04-11T18:43:15.725Z,1.30
2023-04-11T18:48:21.605Z,1.30
2023-04-11T18:53:30.222Z,1.75
2023-04-11T18:58:39.998Z,3.27
2023-04-11T19:03:46.672Z,2.05
2023-04-11T19:08:57.324Z,1.52
2023-04-11T19:14:02.749Z,1.70
2023-04-11T19:19:08.468Z,1.88
2023-04-11T19:24:16.497Z,2.92
2023-04-11T19:29:22.117Z,3.07
2023-04-11T19:34:27.775Z,2.70
2023-04-11T19:39:38.901Z,2.37
2023-04-11T19:44:44.306Z,2.47
2023-04-11T19:49:49.824Z,2.20
2023-04-11T19:54:58.948Z,2.10
2023-04-11T20:00:09.601Z,1.97
2023-04-11T20:05:15.275Z,1.88
2023-04-11T20:10:23.419Z,2.17
2023-04-11T20:15:29.202Z,1.35
2023-04-11T20:20:36.827Z,2.40
2023-04-11T20:25:45.085Z,1.90
2023-04-11T20:30:50.703Z,1.80
2023-04-11T20:35:58.364Z,1.63
2023-04-11T20:41:08.939Z,1.63
2023-04-11T20:46:14.396Z,1.85
2023-04-11T20:51:20.086Z,1.60
2023-04-11T20:56:28.189Z,1.87
2023-04-11T21:01:34.376Z,1.85
2023-04-11T21:06:42.584Z,2.00
2023-04-11T21:11:50.762Z,2.22
2023-04-11T21:16:56.394Z,1.92
2023-04-11T21:22:01.984Z,1.90
2023-04-11T21:27:10.111Z,1.85
2023-04-11T21:32:15.729Z,2.22
2023-04-11T21:37:21.301Z,1.87
2023-04-11T21:42:29.386Z,1.88
2023-04-11T21:47:34.937Z,1.63
2023-04-11T21:52:40.527Z,1.63
2023-04-11T21:57:49.247Z,1.92
2023-04-11T22:02:54.987Z,1.70
2023-04-11T22:08:13.273Z,1.70
2023-04-11T22:13:22.506Z,1.65
2023-04-11T22:18:28.437Z,1.67
2023-04-11T22:23:34.561Z,1.48
2023-04-11T22:28:42.712Z,1.42
2023-04-11T22:33:48.222Z,1.57
2023-04-11T22:38:53.820Z,1.33
2023-04-11T22:44:02.668Z,1.70
2023-04-11T22:49:10.131Z,1.50
2023-04-11T22:54:15.865Z,1.60
2023-04-11T22:59:24.086Z,1.70
2023-04-11T23:04:29.723Z,1.48
2023-04-11T23:09:35.349Z,1.25
2023-04-11T23:14:43.466Z,1.50
2023-04-11T23:19:49.365Z,1.80
2023-04-11T23:24:55.518Z,1.47
2023-04-11T23:30:05.915Z,1.57
2023-04-11T23:35:13.021Z,1.58
2023-04-11T23:40:18.550Z,1.87
2023-04-11T23:45:26.802Z,1.02
2023-04-11T23:50:32.486Z,1.40
2023-04-11T23:55:40.326Z,1.50
